Decoded Metar for YMTG ( in ) (IATA:) | Meteo·Mobile Aviation Weather
aviador You're here:

YMTG Decoded Metar

in
Report Time2018-11-19 09:00:00
UTC Time2018-11-19 10:09:33
Flight Rules Old
Wind030° at 04 kt
W.Decomp.*RWY 06: 3.5 kt HW 2 kt LCW
RWY 36: 3.5 kt HW 2.0 kt RCW
RWY 11: 0.7 kt HW 3.9 kt LCW
W.Rank030° ranks 9
Current wind is below 030° avg. (7.7)
Visibility9999 m
Phenomena:N/A
Clouds:N/A
Expected CloudBase > 8,000 ft AGL from Temp-Dew spread
CeilingNone
Temp27°C
Dew Point07°C (28% RH)
Heat Index26.3°C
AAT24.8°C
QNH1005 hPa
Raw Report
METAR YMTG 190900Z AUTO 03004KT 9999 // NCD 27/07 Q1005=

Extra information for YMTG:More info

Social comments